sensor_id;sensor_type;location;lat;lon;timestamp;P1;durP1;ratioP1;P2;durP2;ratioP2
60078;SDS011;45951;45.824;8.824;2023-06-05T00:00:53;5.32;;;3.92;;
60078;SDS011;45951;45.824;8.824;2023-06-05T00:02:33;6.40;;;4.68;;
60078;SDS011;45951;45.824;8.824;2023-06-05T00:04:13;5.40;;;3.80;;
60078;SDS011;45951;45.824;8.824;2023-06-05T00:05:54;5.90;;;3.80;;
60078;SDS011;45951;45.824;8.824;2023-06-05T00:07:35;5.20;;;3.83;;
60078;SDS011;45951;45.824;8.824;2023-06-05T00:09:17;5.13;;;3.20;;
60078;SDS011;45951;45.824;8.824;2023-06-05T00:10:57;5.38;;;3.47;;
60078;SDS011;45951;45.824;8.824;2023-06-05T00:12:38;5.55;;;3.55;;
60078;SDS011;45951;45.824;8.824;2023-06-05T00:14:18;4.70;;;3.20;;
60078;SDS011;45951;45.824;8.824;2023-06-05T00:15:58;6.57;;;3.17;;
60078;SDS011;45951;45.824;8.824;2023-06-05T00:17:38;4.95;;;3.10;;
60078;SDS011;45951;45.824;8.824;2023-06-05T00:19:19;4.85;;;3.10;;
60078;SDS011;45951;45.824;8.824;2023-06-05T00:20:59;5.20;;;3.15;;
60078;SDS011;45951;45.824;8.824;2023-06-05T00:22:40;4.80;;;3.30;;
60078;SDS011;45951;45.824;8.824;2023-06-05T00:24:20;5.50;;;3.38;;
60078;SDS011;45951;45.824;8.824;2023-06-05T00:26:01;4.53;;;3.15;;
60078;SDS011;45951;45.824;8.824;2023-06-05T00:27:41;4.45;;;3.05;;
60078;SDS011;45951;45.824;8.824;2023-06-05T00:29:21;6.18;;;3.28;;
60078;SDS011;45951;45.824;8.824;2023-06-05T00:31:02;4.70;;;3.13;;
60078;SDS011;45951;45.824;8.824;2023-06-05T00:32:42;5.78;;;2.80;;
60078;SDS011;45951;45.824;8.824;2023-06-05T00:34:22;5.78;;;3.20;;
60078;SDS011;45951;45.824;8.824;2023-06-05T00:36:03;7.95;;;3.60;;
60078;SDS011;45951;45.824;8.824;2023-06-05T00:37:43;4.10;;;3.10;;
60078;SDS011;45951;45.824;8.824;2023-06-05T00:39:26;6.28;;;3.30;;
60078;SDS011;45951;45.824;8.824;2023-06-05T00:41:06;6.20;;;3.40;;
60078;SDS011;45951;45.824;8.824;2023-06-05T00:42:47;5.07;;;3.17;;
60078;SDS011;45951;45.824;8.824;2023-06-05T00:44:27;5.10;;;3.25;;
60078;SDS011;45951;45.824;8.824;2023-06-05T00:46:08;4.80;;;3.20;;
60078;SDS011;45951;45.824;8.824;2023-06-05T00:47:49;4.80;;;3.25;;
60078;SDS011;45951;45.824;8.824;2023-06-05T00:49:29;6.25;;;3.50;;
60078;SDS011;45951;45.824;8.824;2023-06-05T00:51:10;5.10;;;3.42;;
60078;SDS011;45951;45.824;8.824;2023-06-05T00:52:54;4.78;;;3.17;;
60078;SDS011;45951;45.824;8.824;2023-06-05T00:54:35;5.50;;;3.80;;
60078;SDS011;45951;45.824;8.824;2023-06-05T00:56:15;5.15;;;3.30;;
60078;SDS011;45951;45.824;8.824;2023-06-05T00:58:01;5.20;;;3.35;;
60078;SDS011;45951;45.824;8.824;2023-06-05T00:59:43;5.43;;;3.55;;
60078;SDS011;45951;45.824;8.824;2023-06-05T01:01:24;6.40;;;3.85;;
60078;SDS011;45951;45.824;8.824;2023-06-05T01:03:08;5.35;;;3.10;;
60078;SDS011;45951;45.824;8.824;2023-06-05T01:04:49;4.50;;;3.00;;
60078;SDS011;45951;45.824;8.824;2023-06-05T01:06:31;4.28;;;3.17;;
60078;SDS011;45951;45.824;8.824;2023-06-05T01:08:11;5.57;;;3.15;;
60078;SDS011;45951;45.824;8.824;2023-06-05T01:09:52;5.40;;;3.30;;
60078;SDS011;45951;45.824;8.824;2023-06-05T01:13:38;5.63;;;3.60;;
60078;SDS011;45951;45.824;8.824;2023-06-05T01:15:20;4.53;;;3.03;;
60078;SDS011;45951;45.824;8.824;2023-06-05T01:17:08;4.50;;;3.35;;
60078;SDS011;45951;45.824;8.824;2023-06-05T01:18:50;4.97;;;3.28;;
60078;SDS011;45951;45.824;8.824;2023-06-05T01:20:32;4.78;;;3.50;;
60078;SDS011;45951;45.824;8.824;2023-06-05T01:22:13;4.72;;;3.30;;
60078;SDS011;45951;45.824;8.824;2023-06-05T01:23:53;5.72;;;3.15;;
60078;SDS011;45951;45.824;8.824;2023-06-05T01:25:34;5.35;;;3.33;;
60078;SDS011;45951;45.824;8.824;2023-06-05T01:27:27;5.97;;;3.28;;
60078;SDS011;45951;45.824;8.824;2023-06-05T01:29:12;4.90;;;3.13;;
60078;SDS011;45951;45.824;8.824;2023-06-05T01:30:57;4.82;;;3.22;;
60078;SDS011;45951;45.824;8.824;2023-06-05T01:32:52;6.10;;;3.28;;
60078;SDS011;45951;45.824;8.824;2023-06-05T01:34:35;4.78;;;3.20;;
60078;SDS011;45951;45.824;8.824;2023-06-05T01:36:16;5.15;;;3.38;;
60078;SDS011;45951;45.824;8.824;2023-06-05T01:37:58;5.20;;;3.20;;
60078;SDS011;45951;45.824;8.824;2023-06-05T01:39:40;4.82;;;3.40;;
60078;SDS011;45951;45.824;8.824;2023-06-05T01:41:21;4.80;;;3.22;;
60078;SDS011;45951;45.824;8.824;2023-06-05T01:43:03;4.60;;;3.15;;
60078;SDS011;45951;45.824;8.824;2023-06-05T01:44:45;5.65;;;3.40;;
60078;SDS011;45951;45.824;8.824;2023-06-05T01:46:26;6.30;;;3.30;;
60078;SDS011;45951;45.824;8.824;2023-06-05T01:48:07;5.28;;;3.42;;
60078;SDS011;45951;45.824;8.824;2023-06-05T01:49:50;5.57;;;3.58;;
60078;SDS011;45951;45.824;8.824;2023-06-05T01:51:31;7.47;;;3.72;;
60078;SDS011;45951;45.824;8.824;2023-06-05T01:53:11;4.82;;;3.30;;
60078;SDS011;45951;45.824;8.824;2023-06-05T01:54:52;5.22;;;3.70;;
60078;SDS011;45951;45.824;8.824;2023-06-05T01:56:33;5.78;;;3.53;;
60078;SDS011;45951;45.824;8.824;2023-06-05T01:58:15;4.90;;;3.33;;
60078;SDS011;45951;45.824;8.824;2023-06-05T01:59:56;5.13;;;2.90;;
60078;SDS011;45951;45.824;8.824;2023-06-05T02:01:36;5.25;;;3.60;;
60078;SDS011;45951;45.824;8.824;2023-06-05T02:03:17;6.10;;;3.22;;
60078;SDS011;45951;45.824;8.824;2023-06-05T02:04:58;5.22;;;3.40;;
60078;SDS011;45951;45.824;8.824;2023-06-05T02:06:39;5.30;;;3.40;;
60078;SDS011;45951;45.824;8.824;2023-06-05T02:08:23;5.97;;;3.60;;
60078;SDS011;45951;45.824;8.824;2023-06-05T02:10:08;4.68;;;3.22;;
60078;SDS011;45951;45.824;8.824;2023-06-05T02:11:49;6.00;;;3.90;;
60078;SDS011;45951;45.824;8.824;2023-06-05T02:13:29;6.30;;;3.67;;
60078;SDS011;45951;45.824;8.824;2023-06-05T02:15:12;5.38;;;3.33;;
60078;SDS011;45951;45.824;8.824;2023-06-05T02:16:53;4.93;;;3.53;;
60078;SDS011;45951;45.824;8.824;2023-06-05T02:18:34;5.28;;;3.80;;
60078;SDS011;45951;45.824;8.824;2023-06-05T02:20:17;6.35;;;3.83;;
60078;SDS011;45951;45.824;8.824;2023-06-05T02:21:58;6.32;;;3.70;;
60078;SDS011;45951;45.824;8.824;2023-06-05T02:23:38;5.05;;;3.55;;
60078;SDS011;45951;45.824;8.824;2023-06-05T02:25:19;5.15;;;3.67;;
60078;SDS011;45951;45.824;8.824;2023-06-05T02:26:59;5.10;;;3.20;;
60078;SDS011;45951;45.824;8.824;2023-06-05T02:28:40;6.03;;;3.88;;
60078;SDS011;45951;45.824;8.824;2023-06-05T02:30:20;5.97;;;3.60;;
60078;SDS011;45951;45.824;8.824;2023-06-05T02:32:00;5.20;;;3.33;;
60078;SDS011;45951;45.824;8.824;2023-06-05T02:33:41;6.03;;;3.50;;
60078;SDS011;45951;45.824;8.824;2023-06-05T02:35:22;6.05;;;3.70;;
60078;SDS011;45951;45.824;8.824;2023-06-05T02:37:03;5.22;;;3.45;;
60078;SDS011;45951;45.824;8.824;2023-06-05T02:38:44;6.70;;;3.53;;
60078;SDS011;45951;45.824;8.824;2023-06-05T02:40:27;5.57;;;3.72;;
60078;SDS011;45951;45.824;8.824;2023-06-05T02:42:09;5.60;;;3.40;;
60078;SDS011;45951;45.824;8.824;2023-06-05T02:43:52;5.70;;;3.33;;
60078;SDS011;45951;45.824;8.824;2023-06-05T02:45:34;6.18;;;3.53;;
60078;SDS011;45951;45.824;8.824;2023-06-05T02:47:15;5.03;;;3.25;;
60078;SDS011;45951;45.824;8.824;2023-06-05T02:48:55;5.20;;;3.00;;
60078;SDS011;45951;45.824;8.824;2023-06-05T02:50:35;4.75;;;3.10;;
60078;SDS011;45951;45.824;8.824;2023-06-05T02:52:16;4.93;;;3.22;;
60078;SDS011;45951;45.824;8.824;2023-06-05T02:53:56;5.32;;;3.22;;
60078;SDS011;45951;45.824;8.824;2023-06-05T02:55:37;4.63;;;3.00;;
60078;SDS011;45951;45.824;8.824;2023-06-05T02:57:17;4.72;;;3.10;;
60078;SDS011;45951;45.824;8.824;2023-06-05T02:58:58;6.30;;;3.22;;
60078;SDS011;45951;45.824;8.824;2023-06-05T03:03:01;4.82;;;3.03;;
60078;SDS011;45951;45.824;8.824;2023-06-05T03:04:46;4.68;;;3.17;;
60078;SDS011;45951;45.824;8.824;2023-06-05T03:06:29;4.97;;;3.17;;
60078;SDS011;45951;45.824;8.824;2023-06-05T03:08:13;8.80;;;3.20;;
60078;SDS011;45951;45.824;8.824;2023-06-05T03:09:53;4.15;;;3.00;;
60078;SDS011;45951;45.824;8.824;2023-06-05T03:11:34;4.72;;;2.97;;
60078;SDS011;45951;45.824;8.824;2023-06-05T03:13:14;4.60;;;3.05;;
60078;SDS011;45951;45.824;8.824;2023-06-05T03:14:54;5.78;;;3.30;;
60078;SDS011;45951;45.824;8.824;2023-06-05T03:16:35;4.75;;;2.95;;
60078;SDS011;45951;45.824;8.824;2023-06-05T03:18:21;4.18;;;2.85;;
60078;SDS011;45951;45.824;8.824;2023-06-05T03:20:01;4.95;;;3.25;;
60078;SDS011;45951;45.824;8.824;2023-06-05T03:21:42;4.22;;;2.80;;
60078;SDS011;45951;45.824;8.824;2023-06-05T03:23:26;4.35;;;2.97;;
60078;SDS011;45951;45.824;8.824;2023-06-05T03:25:10;4.93;;;2.95;;
60078;SDS011;45951;45.824;8.824;2023-06-05T03:26:50;5.47;;;3.10;;
60078;SDS011;45951;45.824;8.824;2023-06-05T03:28:30;4.32;;;3.03;;
60078;SDS011;45951;45.824;8.824;2023-06-05T03:30:13;4.53;;;3.08;;
60078;SDS011;45951;45.824;8.824;2023-06-05T03:31:56;5.35;;;3.00;;
60078;SDS011;45951;45.824;8.824;2023-06-05T03:33:36;5.25;;;3.00;;
60078;SDS011;45951;45.824;8.824;2023-06-05T03:35:17;4.55;;;3.15;;
60078;SDS011;45951;45.824;8.824;2023-06-05T03:36:58;5.10;;;3.28;;
60078;SDS011;45951;45.824;8.824;2023-06-05T03:38:38;5.35;;;2.90;;
60078;SDS011;45951;45.824;8.824;2023-06-05T03:40:19;4.68;;;3.20;;
60078;SDS011;45951;45.824;8.824;2023-06-05T03:41:59;4.43;;;2.80;;
60078;SDS011;45951;45.824;8.824;2023-06-05T03:43:40;5.22;;;3.15;;
60078;SDS011;45951;45.824;8.824;2023-06-05T03:45:20;5.50;;;3.30;;
60078;SDS011;45951;45.824;8.824;2023-06-05T03:47:02;4.45;;;2.95;;
60078;SDS011;45951;45.824;8.824;2023-06-05T03:48:44;5.50;;;2.95;;
60078;SDS011;45951;45.824;8.824;2023-06-05T03:50:28;6.30;;;3.33;;
60078;SDS011;45951;45.824;8.824;2023-06-05T03:52:09;4.95;;;3.35;;
60078;SDS011;45951;45.824;8.824;2023-06-05T03:53:50;4.20;;;3.00;;
60078;SDS011;45951;45.824;8.824;2023-06-05T03:55:34;4.88;;;3.25;;
60078;SDS011;45951;45.824;8.824;2023-06-05T03:57:29;4.70;;;3.03;;
60078;SDS011;45951;45.824;8.824;2023-06-05T03:59:10;5.20;;;2.90;;
60078;SDS011;45951;45.824;8.824;2023-06-05T04:00:56;4.35;;;2.78;;
60078;SDS011;45951;45.824;8.824;2023-06-05T04:02:37;5.03;;;2.90;;
60078;SDS011;45951;45.824;8.824;2023-06-05T04:04:17;4.43;;;2.70;;
60078;SDS011;45951;45.824;8.824;2023-06-05T04:05:58;5.00;;;2.90;;
60078;SDS011;45951;45.824;8.824;2023-06-05T04:07:38;4.20;;;2.80;;
60078;SDS011;45951;45.824;8.824;2023-06-05T04:09:19;3.78;;;2.65;;
60078;SDS011;45951;45.824;8.824;2023-06-05T04:10:59;3.85;;;2.70;;
60078;SDS011;45951;45.824;8.824;2023-06-05T04:12:39;3.97;;;2.72;;
60078;SDS011;45951;45.824;8.824;2023-06-05T04:14:20;4.85;;;2.70;;
60078;SDS011;45951;45.824;8.824;2023-06-05T04:16:00;4.18;;;2.67;;
60078;SDS011;45951;45.824;8.824;2023-06-05T04:17:42;4.50;;;2.67;;
60078;SDS011;45951;45.824;8.824;2023-06-05T04:19:22;4.38;;;2.60;;
60078;SDS011;45951;45.824;8.824;2023-06-05T04:21:03;4.95;;;2.65;;
60078;SDS011;45951;45.824;8.824;2023-06-05T04:22:43;4.75;;;2.80;;
60078;SDS011;45951;45.824;8.824;2023-06-05T04:24:25;4.30;;;2.60;;
60078;SDS011;45951;45.824;8.824;2023-06-05T04:26:05;3.67;;;2.78;;
60078;SDS011;45951;45.824;8.824;2023-06-05T04:27:46;4.05;;;2.45;;
60078;SDS011;45951;45.824;8.824;2023-06-05T04:29:29;4.90;;;2.70;;
60078;SDS011;45951;45.824;8.824;2023-06-05T04:31:12;4.22;;;2.92;;
60078;SDS011;45951;45.824;8.824;2023-06-05T04:32:52;4.40;;;3.15;;
60078;SDS011;45951;45.824;8.824;2023-06-05T04:34:36;3.30;;;2.47;;
60078;SDS011;45951;45.824;8.824;2023-06-05T04:36:16;3.40;;;2.42;;
60078;SDS011;45951;45.824;8.824;2023-06-05T04:37:58;3.53;;;2.50;;
60078;SDS011;45951;45.824;8.824;2023-06-05T04:39:39;2.85;;;2.13;;
60078;SDS011;45951;45.824;8.824;2023-06-05T04:41:19;4.60;;;2.90;;
60078;SDS011;45951;45.824;8.824;2023-06-05T04:43:01;3.28;;;2.40;;
60078;SDS011;45951;45.824;8.824;2023-06-05T04:44:41;5.18;;;3.10;;
60078;SDS011;45951;45.824;8.824;2023-06-05T04:46:22;4.68;;;2.67;;
60078;SDS011;45951;45.824;8.824;2023-06-05T04:48:03;4.63;;;3.40;;
60078;SDS011;45951;45.824;8.824;2023-06-05T04:49:43;4.18;;;2.42;;
60078;SDS011;45951;45.824;8.824;2023-06-05T04:51:24;3.70;;;2.40;;
60078;SDS011;45951;45.824;8.824;2023-06-05T04:53:05;3.67;;;2.47;;
60078;SDS011;45951;45.824;8.824;2023-06-05T04:54:45;3.38;;;2.55;;
60078;SDS011;45951;45.824;8.824;2023-06-05T04:56:26;3.67;;;2.58;;
60078;SDS011;45951;45.824;8.824;2023-06-05T04:58:06;4.65;;;2.80;;
60078;SDS011;45951;45.824;8.824;2023-06-05T04:59:47;5.90;;;3.08;;
60078;SDS011;45951;45.824;8.824;2023-06-05T05:01:27;4.38;;;2.50;;
60078;SDS011;45951;45.824;8.824;2023-06-05T05:03:07;4.47;;;2.70;;
60078;SDS011;45951;45.824;8.824;2023-06-05T05:04:48;4.38;;;3.03;;
60078;SDS011;45951;45.824;8.824;2023-06-05T05:06:28;6.25;;;3.80;;
60078;SDS011;45951;45.824;8.824;2023-06-05T05:08:09;5.45;;;3.00;;
60078;SDS011;45951;45.824;8.824;2023-06-05T05:09:49;4.60;;;2.97;;
60078;SDS011;45951;45.824;8.824;2023-06-05T05:11:30;4.32;;;2.40;;
60078;SDS011;45951;45.824;8.824;2023-06-05T05:13:10;5.07;;;3.17;;
60078;SDS011;45951;45.824;8.824;2023-06-05T05:14:50;5.90;;;3.17;;
60078;SDS011;45951;45.824;8.824;2023-06-05T05:16:31;4.90;;;2.85;;
60078;SDS011;45951;45.824;8.824;2023-06-05T05:18:12;5.57;;;2.80;;
60078;SDS011;45951;45.824;8.824;2023-06-05T05:19:53;4.30;;;2.75;;
60078;SDS011;45951;45.824;8.824;2023-06-05T05:21:33;4.43;;;2.80;;
60078;SDS011;45951;45.824;8.824;2023-06-05T05:23:14;5.07;;;2.80;;
60078;SDS011;45951;45.824;8.824;2023-06-05T05:24:54;5.05;;;2.60;;
60078;SDS011;45951;45.824;8.824;2023-06-05T05:26:34;5.93;;;3.28;;
60078;SDS011;45951;45.824;8.824;2023-06-05T05:28:15;4.40;;;2.75;;
60078;SDS011;45951;45.824;8.824;2023-06-05T05:29:55;4.78;;;2.88;;
60078;SDS011;45951;45.824;8.824;2023-06-05T05:31:36;5.05;;;3.80;;
60078;SDS011;45951;45.824;8.824;2023-06-05T05:33:16;3.75;;;2.80;;
60078;SDS011;45951;45.824;8.824;2023-06-05T05:34:56;6.60;;;3.50;;
60078;SDS011;45951;45.824;8.824;2023-06-05T05:36:37;5.03;;;3.42;;
60078;SDS011;45951;45.824;8.824;2023-06-05T05:38:17;4.65;;;3.05;;
60078;SDS011;45951;45.824;8.824;2023-06-05T05:39:57;4.13;;;2.88;;
60078;SDS011;45951;45.824;8.824;2023-06-05T05:41:38;4.50;;;2.83;;
60078;SDS011;45951;45.824;8.824;2023-06-05T05:43:18;6.00;;;5.15;;
60078;SDS011;45951;45.824;8.824;2023-06-05T05:44:58;5.90;;;3.35;;
60078;SDS011;45951;45.824;8.824;2023-06-05T05:46:39;5.38;;;3.00;;
60078;SDS011;45951;45.824;8.824;2023-06-05T05:48:19;5.35;;;3.05;;
60078;SDS011;45951;45.824;8.824;2023-06-05T05:49:59;4.90;;;3.13;;
60078;SDS011;45951;45.824;8.824;2023-06-05T05:51:40;5.88;;;3.35;;
60078;SDS011;45951;45.824;8.824;2023-06-05T05:53:20;4.70;;;2.92;;
60078;SDS011;45951;45.824;8.824;2023-06-05T05:55:00;4.38;;;2.90;;
60078;SDS011;45951;45.824;8.824;2023-06-05T05:56:43;6.35;;;4.70;;
60078;SDS011;45951;45.824;8.824;2023-06-05T05:58:23;6.50;;;3.72;;
60078;SDS011;45951;45.824;8.824;2023-06-05T06:00:04;4.78;;;3.33;;
60078;SDS011;45951;45.824;8.824;2023-06-05T06:01:52;5.35;;;3.40;;
60078;SDS011;45951;45.824;8.824;2023-06-05T06:03:32;5.82;;;3.42;;
60078;SDS011;45951;45.824;8.824;2023-06-05T06:05:16;5.57;;;3.30;;
60078;SDS011;45951;45.824;8.824;2023-06-05T06:06:57;5.03;;;3.38;;
60078;SDS011;45951;45.824;8.824;2023-06-05T06:08:37;4.60;;;3.10;;
60078;SDS011;45951;45.824;8.824;2023-06-05T06:10:18;4.78;;;3.20;;
60078;SDS011;45951;45.824;8.824;2023-06-05T06:11:59;4.28;;;2.90;;
60078;SDS011;45951;45.824;8.824;2023-06-05T06:13:43;5.93;;;3.20;;
60078;SDS011;45951;45.824;8.824;2023-06-05T06:15:23;5.93;;;3.60;;
60078;SDS011;45951;45.824;8.824;2023-06-05T06:17:04;4.80;;;3.25;;
60078;SDS011;45951;45.824;8.824;2023-06-05T06:18:45;5.15;;;3.10;;
60078;SDS011;45951;45.824;8.824;2023-06-05T06:20:26;4.70;;;3.08;;
60078;SDS011;45951;45.824;8.824;2023-06-05T06:22:07;4.22;;;2.80;;
60078;SDS011;45951;45.824;8.824;2023-06-05T06:23:51;4.22;;;2.83;;
60078;SDS011;45951;45.824;8.824;2023-06-05T06:25:32;4.35;;;3.00;;
60078;SDS011;45951;45.824;8.824;2023-06-05T06:27:12;5.10;;;2.90;;
60078;SDS011;45951;45.824;8.824;2023-06-05T06:28:53;6.97;;;3.40;;
60078;SDS011;45951;45.824;8.824;2023-06-05T06:30:35;4.03;;;2.85;;
60078;SDS011;45951;45.824;8.824;2023-06-05T06:32:17;5.35;;;2.90;;
60078;SDS011;45951;45.824;8.824;2023-06-05T06:33:58;5.72;;;3.45;;
60078;SDS011;45951;45.824;8.824;2023-06-05T06:35:39;5.10;;;3.33;;
60078;SDS011;45951;45.824;8.824;2023-06-05T06:37:20;7.30;;;3.30;;
60078;SDS011;45951;45.824;8.824;2023-06-05T06:39:00;4.47;;;3.08;;
60078;SDS011;45951;45.824;8.824;2023-06-05T06:40:41;4.72;;;3.08;;
60078;SDS011;45951;45.824;8.824;2023-06-05T06:42:21;5.63;;;3.05;;
60078;SDS011;45951;45.824;8.824;2023-06-05T06:44:01;5.45;;;3.10;;
60078;SDS011;45951;45.824;8.824;2023-06-05T06:45:42;5.35;;;3.20;;
60078;SDS011;45951;45.824;8.824;2023-06-05T06:47:22;5.18;;;3.33;;
60078;SDS011;45951;45.824;8.824;2023-06-05T06:49:04;5.30;;;3.50;;
60078;SDS011;45951;45.824;8.824;2023-06-05T06:50:46;5.40;;;3.38;;
60078;SDS011;45951;45.824;8.824;2023-06-05T06:52:26;6.38;;;3.17;;
60078;SDS011;45951;45.824;8.824;2023-06-05T06:54:07;4.13;;;2.70;;
60078;SDS011;45951;45.824;8.824;2023-06-05T06:55:47;4.15;;;2.50;;
60078;SDS011;45951;45.824;8.824;2023-06-05T06:57:27;4.95;;;2.60;;
60078;SDS011;45951;45.824;8.824;2023-06-05T06:59:14;3.78;;;2.50;;
60078;SDS011;45951;45.824;8.824;2023-06-05T07:00:54;2.70;;;2.33;;
60078;SDS011;45951;45.824;8.824;2023-06-05T07:02:35;4.32;;;2.40;;
60078;SDS011;45951;45.824;8.824;2023-06-05T07:04:16;3.92;;;2.65;;
60078;SDS011;45951;45.824;8.824;2023-06-05T07:05:56;4.63;;;2.67;;
60078;SDS011;45951;45.824;8.824;2023-06-05T07:07:37;3.63;;;2.30;;
60078;SDS011;45951;45.824;8.824;2023-06-05T07:09:17;3.88;;;2.50;;
60078;SDS011;45951;45.824;8.824;2023-06-05T07:10:57;3.53;;;2.35;;
60078;SDS011;45951;45.824;8.824;2023-06-05T07:12:37;4.85;;;2.92;;
60078;SDS011;45951;45.824;8.824;2023-06-05T07:14:18;6.60;;;4.50;;
60078;SDS011;45951;45.824;8.824;2023-06-05T07:15:58;6.13;;;3.10;;
60078;SDS011;45951;45.824;8.824;2023-06-05T07:17:38;4.13;;;3.05;;
60078;SDS011;45951;45.824;8.824;2023-06-05T07:19:19;5.18;;;2.97;;
60078;SDS011;45951;45.824;8.824;2023-06-05T07:20:59;4.72;;;3.08;;
60078;SDS011;45951;45.824;8.824;2023-06-05T07:22:41;5.68;;;3.22;;
60078;SDS011;45951;45.824;8.824;2023-06-05T07:24:26;5.10;;;2.92;;
60078;SDS011;45951;45.824;8.824;2023-06-05T07:26:07;3.35;;;2.92;;
60078;SDS011;45951;45.824;8.824;2023-06-05T07:27:48;4.28;;;3.20;;
60078;SDS011;45951;45.824;8.824;2023-06-05T07:29:28;4.22;;;3.03;;
60078;SDS011;45951;45.824;8.824;2023-06-05T07:31:09;5.05;;;3.30;;
60078;SDS011;45951;45.824;8.824;2023-06-05T07:32:50;5.78;;;3.33;;
60078;SDS011;45951;45.824;8.824;2023-06-05T07:34:30;6.25;;;3.30;;
60078;SDS011;45951;45.824;8.824;2023-06-05T07:36:11;4.85;;;3.13;;
60078;SDS011;45951;45.824;8.824;2023-06-05T07:37:51;5.90;;;3.60;;
60078;SDS011;45951;45.824;8.824;2023-06-05T07:39:31;5.88;;;3.42;;
60078;SDS011;45951;45.824;8.824;2023-06-05T07:41:12;5.10;;;3.50;;
60078;SDS011;45951;45.824;8.824;2023-06-05T07:42:52;4.85;;;3.30;;
60078;SDS011;45951;45.824;8.824;2023-06-05T07:44:32;5.53;;;3.60;;
60078;SDS011;45951;45.824;8.824;2023-06-05T07:46:13;4.18;;;3.22;;
60078;SDS011;45951;45.824;8.824;2023-06-05T07:47:54;4.97;;;3.72;;
60078;SDS011;45951;45.824;8.824;2023-06-05T07:49:35;4.97;;;3.15;;
60078;SDS011;45951;45.824;8.824;2023-06-05T07:51:15;4.63;;;3.20;;
60078;SDS011;45951;45.824;8.824;2023-06-05T07:52:58;5.00;;;3.28;;
60078;SDS011;45951;45.824;8.824;2023-06-05T07:54:38;6.13;;;3.90;;
60078;SDS011;45951;45.824;8.824;2023-06-05T07:56:20;6.47;;;4.00;;
60078;SDS011;45951;45.824;8.824;2023-06-05T07:58:03;4.90;;;3.50;;
60078;SDS011;45951;45.824;8.824;2023-06-05T07:59:44;4.28;;;3.08;;
60078;SDS011;45951;45.824;8.824;2023-06-05T08:01:24;5.78;;;3.40;;
60078;SDS011;45951;45.824;8.824;2023-06-05T08:03:05;6.97;;;4.22;;
60078;SDS011;45951;45.824;8.824;2023-06-05T08:04:46;5.07;;;3.30;;
60078;SDS011;45951;45.824;8.824;2023-06-05T08:06:27;5.28;;;3.20;;
60078;SDS011;45951;45.824;8.824;2023-06-05T08:08:07;5.07;;;3.65;;
60078;SDS011;45951;45.824;8.824;2023-06-05T08:09:47;5.32;;;3.67;;
60078;SDS011;45951;45.824;8.824;2023-06-05T08:11:28;5.07;;;3.55;;
60078;SDS011;45951;45.824;8.824;2023-06-05T08:13:08;4.90;;;3.22;;
60078;SDS011;45951;45.824;8.824;2023-06-05T08:14:49;5.18;;;3.75;;
60078;SDS011;45951;45.824;8.824;2023-06-05T08:16:29;5.18;;;3.67;;
60078;SDS011;45951;45.824;8.824;2023-06-05T08:18:10;4.80;;;3.75;;
60078;SDS011;45951;45.824;8.824;2023-06-05T08:19:50;6.32;;;4.50;;
60078;SDS011;45951;45.824;8.824;2023-06-05T08:21:30;5.93;;;4.22;;
60078;SDS011;45951;45.824;8.824;2023-06-05T08:23:11;6.25;;;4.80;;
60078;SDS011;45951;45.824;8.824;2023-06-05T08:24:52;5.68;;;4.47;;
60078;SDS011;45951;45.824;8.824;2023-06-05T08:26:34;6.22;;;4.85;;
60078;SDS011;45951;45.824;8.824;2023-06-05T08:28:16;7.75;;;5.68;;
60078;SDS011;45951;45.824;8.824;2023-06-05T08:29:56;7.20;;;5.22;;
60078;SDS011;45951;45.824;8.824;2023-06-05T08:31:36;7.53;;;4.68;;
60078;SDS011;45951;45.824;8.824;2023-06-05T08:33:17;5.55;;;4.63;;
60078;SDS011;45951;45.824;8.824;2023-06-05T08:34:59;7.03;;;4.32;;
60078;SDS011;45951;45.824;8.824;2023-06-05T08:36:39;7.82;;;4.53;;
60078;SDS011;45951;45.824;8.824;2023-06-05T08:38:19;7.03;;;4.80;;
60078;SDS011;45951;45.824;8.824;2023-06-05T08:39:59;6.68;;;5.25;;
60078;SDS011;45951;45.824;8.824;2023-06-05T08:41:48;7.30;;;5.25;;
60078;SDS011;45951;45.824;8.824;2023-06-05T08:43:31;5.68;;;4.32;;
60078;SDS011;45951;45.824;8.824;2023-06-05T08:45:11;6.40;;;4.63;;
60078;SDS011;45951;45.824;8.824;2023-06-05T08:46:52;5.78;;;4.43;;
60078;SDS011;45951;45.824;8.824;2023-06-05T08:48:41;7.35;;;5.00;;
60078;SDS011;45951;45.824;8.824;2023-06-05T08:50:22;6.95;;;5.35;;
60078;SDS011;45951;45.824;8.824;2023-06-05T08:52:05;8.10;;;5.20;;
60078;SDS011;45951;45.824;8.824;2023-06-05T08:53:57;8.15;;;5.38;;
60078;SDS011;45951;45.824;8.824;2023-06-05T08:55:38;8.10;;;5.60;;
60078;SDS011;45951;45.824;8.824;2023-06-05T08:57:19;7.55;;;5.88;;
60078;SDS011;45951;45.824;8.824;2023-06-05T08:59:01;6.57;;;5.68;;
60078;SDS011;45951;45.824;8.824;2023-06-05T09:00:41;7.50;;;5.28;;
60078;SDS011;45951;45.824;8.824;2023-06-05T09:02:21;7.20;;;6.50;;
60078;SDS011;45951;45.824;8.824;2023-06-05T09:04:02;8.77;;;6.53;;
60078;SDS011;45951;45.824;8.824;2023-06-05T09:05:42;8.18;;;5.32;;
60078;SDS011;45951;45.824;8.824;2023-06-05T09:07:22;8.10;;;5.25;;
60078;SDS011;45951;45.824;8.824;2023-06-05T09:09:03;6.07;;;5.13;;
60078;SDS011;45951;45.824;8.824;2023-06-05T09:10:43;6.35;;;5.20;;
60078;SDS011;45951;45.824;8.824;2023-06-05T09:12:24;7.32;;;5.07;;
60078;SDS011;45951;45.824;8.824;2023-06-05T09:14:05;6.93;;;4.80;;
60078;SDS011;45951;45.824;8.824;2023-06-05T09:15:49;6.43;;;4.70;;
60078;SDS011;45951;45.824;8.824;2023-06-05T09:17:30;6.38;;;5.40;;
60078;SDS011;45951;45.824;8.824;2023-06-05T09:19:10;6.45;;;5.30;;
60078;SDS011;45951;45.824;8.824;2023-06-05T09:20:51;5.63;;;4.32;;
60078;SDS011;45951;45.824;8.824;2023-06-05T09:22:32;6.68;;;4.50;;
60078;SDS011;45951;45.824;8.824;2023-06-05T09:24:16;6.25;;;4.82;;
60078;SDS011;45951;45.824;8.824;2023-06-05T09:26:01;6.72;;;4.45;;
60078;SDS011;45951;45.824;8.824;2023-06-05T09:27:43;7.03;;;5.00;;
60078;SDS011;45951;45.824;8.824;2023-06-05T09:29:31;7.47;;;5.72;;
60078;SDS011;45951;45.824;8.824;2023-06-05T09:31:16;7.35;;;5.43;;
60078;SDS011;45951;45.824;8.824;2023-06-05T09:32:58;8.13;;;6.70;;
60078;SDS011;45951;45.824;8.824;2023-06-05T09:34:54;7.38;;;5.57;;
60078;SDS011;45951;45.824;8.824;2023-06-05T09:36:45;6.60;;;5.70;;
60078;SDS011;45951;45.824;8.824;2023-06-05T09:38:26;6.97;;;5.30;;
60078;SDS011;45951;45.824;8.824;2023-06-05T09:40:07;7.50;;;5.30;;
60078;SDS011;45951;45.824;8.824;2023-06-05T09:41:55;9.13;;;6.70;;
60078;SDS011;45951;45.824;8.824;2023-06-05T09:43:36;7.78;;;6.30;;
60078;SDS011;45951;45.824;8.824;2023-06-05T09:45:17;9.20;;;7.18;;
60078;SDS011;45951;45.824;8.824;2023-06-05T09:46:58;9.55;;;7.78;;
60078;SDS011;45951;45.824;8.824;2023-06-05T09:48:50;9.10;;;7.40;;
60078;SDS011;45951;45.824;8.824;2023-06-05T09:50:34;9.57;;;7.78;;
60078;SDS011;45951;45.824;8.824;2023-06-05T09:52:14;9.13;;;6.63;;
60078;SDS011;45951;45.824;8.824;2023-06-05T09:53:55;9.35;;;7.43;;
60078;SDS011;45951;45.824;8.824;2023-06-05T09:55:36;8.00;;;6.88;;
60078;SDS011;45951;45.824;8.824;2023-06-05T09:57:17;10.32;;;7.57;;
60078;SDS011;45951;45.824;8.824;2023-06-05T09:58:58;9.38;;;7.65;;
60078;SDS011;45951;45.824;8.824;2023-06-05T10:00:38;8.48;;;7.38;;
60078;SDS011;45951;45.824;8.824;2023-06-05T10:02:25;8.40;;;6.85;;
60078;SDS011;45951;45.824;8.824;2023-06-05T10:04:10;8.35;;;6.75;;
60078;SDS011;45951;45.824;8.824;2023-06-05T10:05:52;7.68;;;6.18;;
60078;SDS011;45951;45.824;8.824;2023-06-05T10:07:32;9.23;;;7.30;;
60078;SDS011;45951;45.824;8.824;2023-06-05T10:09:15;9.00;;;7.80;;
60078;SDS011;45951;45.824;8.824;2023-06-05T10:10:56;7.88;;;7.07;;
60078;SDS011;45951;45.824;8.824;2023-06-05T10:12:37;8.40;;;6.88;;
60078;SDS011;45951;45.824;8.824;2023-06-05T10:14:18;8.60;;;7.65;;
60078;SDS011;45951;45.824;8.824;2023-06-05T10:15:59;8.40;;;6.43;;